Terminal Aerodrome Forecast
Issued by NWS

Home | Current Version | Previous Version | Text Only | Print | Product List | Glossary On
Versions: 1 2 3 4 5 6 7 8 9 10 11 12 13 14 15 16 17 18 19 20 21 22 23 24 25 26 27
514
FTUS44 KMAF 221721
TAFHOB
TAF
KHOB 221721Z 2218/2318 VRB05KT 6SM BR OVC005
      TEMPO 2218/2219 5SM -FZDZ BR BKN003
     FM222000 17007KT P6SM BKN015
     FM222200 19009KT P6SM SCT250=

USA.gov is the U.S. government's official web portal to all federal, state and local government web resources and services.